sensor_id;sensor_type;location;lat;lon;timestamp;temperature;humidity
47520;DHT22;33252;48.122;11.538;2024-01-27T00:00:25;3.60;99.90
47520;DHT22;33252;48.122;11.538;2024-01-27T00:02:51;3.60;99.90
47520;DHT22;33252;48.122;11.538;2024-01-27T00:05:17;3.70;99.90
47520;DHT22;33252;48.122;11.538;2024-01-27T00:07:42;3.60;99.90
47520;DHT22;33252;48.122;11.538;2024-01-27T00:10:08;3.70;99.90
47520;DHT22;33252;48.122;11.538;2024-01-27T00:12:34;3.60;99.90
47520;DHT22;33252;48.122;11.538;2024-01-27T00:14:59;3.50;99.90
47520;DHT22;33252;48.122;11.538;2024-01-27T00:17:25;3.50;99.90
47520;DHT22;33252;48.122;11.538;2024-01-27T00:19:51;3.40;99.90
47520;DHT22;33252;48.122;11.538;2024-01-27T00:22:17;3.30;99.90
47520;DHT22;33252;48.122;11.538;2024-01-27T00:24:43;3.30;99.90
47520;DHT22;33252;48.122;11.538;2024-01-27T00:27:09;3.50;99.90
47520;DHT22;33252;48.122;11.538;2024-01-27T00:29:34;3.40;99.90
47520;DHT22;33252;48.122;11.538;2024-01-27T00:32:00;3.40;99.90
47520;DHT22;33252;48.122;11.538;2024-01-27T00:34:25;3.40;99.90
47520;DHT22;33252;48.122;11.538;2024-01-27T00:36:51;3.50;99.90
47520;DHT22;33252;48.122;11.538;2024-01-27T00:39:17;3.50;99.90
47520;DHT22;33252;48.122;11.538;2024-01-27T00:41:43;3.50;99.90
47520;DHT22;33252;48.122;11.538;2024-01-27T00:44:09;3.30;99.90
47520;DHT22;33252;48.122;11.538;2024-01-27T00:46:34;3.20;99.90
47520;DHT22;33252;48.122;11.538;2024-01-27T00:49:00;3.20;99.90
47520;DHT22;33252;48.122;11.538;2024-01-27T00:51:25;3.20;99.90
47520;DHT22;33252;48.122;11.538;2024-01-27T00:53:51;3.20;99.90
47520;DHT22;33252;48.122;11.538;2024-01-27T00:56:17;3.20;99.90
47520;DHT22;33252;48.122;11.538;2024-01-27T00:58:42;3.20;99.90
47520;DHT22;33252;48.122;11.538;2024-01-27T01:01:08;3.20;99.90
47520;DHT22;33252;48.122;11.538;2024-01-27T01:03:33;3.20;99.90
47520;DHT22;33252;48.122;11.538;2024-01-27T01:05:59;3.20;99.90
47520;DHT22;33252;48.122;11.538;2024-01-27T01:08:24;3.20;99.90
47520;DHT22;33252;48.122;11.538;2024-01-27T01:10:49;3.20;99.90
47520;DHT22;33252;48.122;11.538;2024-01-27T01:13:15;3.10;99.90
47520;DHT22;33252;48.122;11.538;2024-01-27T01:15:40;3.00;99.90
47520;DHT22;33252;48.122;11.538;2024-01-27T01:18:06;3.00;99.90
47520;DHT22;33252;48.122;11.538;2024-01-27T01:20:31;3.00;99.90
47520;DHT22;33252;48.122;11.538;2024-01-27T01:22:58;3.10;99.90
47520;DHT22;33252;48.122;11.538;2024-01-27T01:25:23;3.00;99.90
47520;DHT22;33252;48.122;11.538;2024-01-27T01:27:49;2.90;99.90
47520;DHT22;33252;48.122;11.538;2024-01-27T01:30:16;2.90;99.90
47520;DHT22;33252;48.122;11.538;2024-01-27T01:32:42;3.00;99.90
47520;DHT22;33252;48.122;11.538;2024-01-27T01:35:08;3.00;99.90
47520;DHT22;33252;48.122;11.538;2024-01-27T01:37:35;3.00;99.90
47520;DHT22;33252;48.122;11.538;2024-01-27T01:40:00;3.10;99.90
47520;DHT22;33252;48.122;11.538;2024-01-27T01:42:26;2.90;99.90
47520;DHT22;33252;48.122;11.538;2024-01-27T01:44:52;3.00;99.90
47520;DHT22;33252;48.122;11.538;2024-01-27T01:47:18;2.90;99.90
47520;DHT22;33252;48.122;11.538;2024-01-27T01:49:43;2.80;99.90
47520;DHT22;33252;48.122;11.538;2024-01-27T01:52:09;2.70;99.90
47520;DHT22;33252;48.122;11.538;2024-01-27T01:54:35;2.70;99.90
47520;DHT22;33252;48.122;11.538;2024-01-27T01:57:01;2.70;99.90
47520;DHT22;33252;48.122;11.538;2024-01-27T01:59:27;2.80;99.90
47520;DHT22;33252;48.122;11.538;2024-01-27T02:01:52;2.80;99.90
47520;DHT22;33252;48.122;11.538;2024-01-27T02:04:18;2.60;99.90
47520;DHT22;33252;48.122;11.538;2024-01-27T02:06:44;2.50;99.90
47520;DHT22;33252;48.122;11.538;2024-01-27T02:09:09;2.70;99.90
47520;DHT22;33252;48.122;11.538;2024-01-27T02:11:35;2.70;99.90
47520;DHT22;33252;48.122;11.538;2024-01-27T02:14:00;2.70;99.90
47520;DHT22;33252;48.122;11.538;2024-01-27T02:16:26;2.90;99.90
47520;DHT22;33252;48.122;11.538;2024-01-27T02:18:51;2.90;99.90
47520;DHT22;33252;48.122;11.538;2024-01-27T02:21:17;2.80;99.90
47520;DHT22;33252;48.122;11.538;2024-01-27T02:23:42;2.70;99.90
47520;DHT22;33252;48.122;11.538;2024-01-27T02:26:08;2.70;99.90
47520;DHT22;33252;48.122;11.538;2024-01-27T02:28:33;2.70;99.90
47520;DHT22;33252;48.122;11.538;2024-01-27T02:31:00;2.60;99.90
47520;DHT22;33252;48.122;11.538;2024-01-27T02:33:26;2.70;99.90
47520;DHT22;33252;48.122;11.538;2024-01-27T02:35:51;2.70;99.90
47520;DHT22;33252;48.122;11.538;2024-01-27T02:38:17;2.70;99.90
47520;DHT22;33252;48.122;11.538;2024-01-27T02:40:43;2.60;99.90
47520;DHT22;33252;48.122;11.538;2024-01-27T02:43:08;2.60;99.90
47520;DHT22;33252;48.122;11.538;2024-01-27T02:45:34;2.60;99.90
47520;DHT22;33252;48.122;11.538;2024-01-27T02:47:59;2.50;99.90
47520;DHT22;33252;48.122;11.538;2024-01-27T02:50:25;2.60;99.90
47520;DHT22;33252;48.122;11.538;2024-01-27T02:52:50;2.50;99.90
47520;DHT22;33252;48.122;11.538;2024-01-27T02:55:16;2.60;99.90
47520;DHT22;33252;48.122;11.538;2024-01-27T02:57:41;2.60;99.90
47520;DHT22;33252;48.122;11.538;2024-01-27T03:00:07;2.60;99.90
47520;DHT22;33252;48.122;11.538;2024-01-27T03:02:33;2.60;99.90
47520;DHT22;33252;48.122;11.538;2024-01-27T03:04:58;2.50;99.90
47520;DHT22;33252;48.122;11.538;2024-01-27T03:07:24;2.50;99.90
47520;DHT22;33252;48.122;11.538;2024-01-27T03:09:49;2.50;99.90
47520;DHT22;33252;48.122;11.538;2024-01-27T03:12:15;2.60;99.90
47520;DHT22;33252;48.122;11.538;2024-01-27T03:14:41;2.60;99.90
47520;DHT22;33252;48.122;11.538;2024-01-27T03:17:07;2.60;99.90
47520;DHT22;33252;48.122;11.538;2024-01-27T03:19:33;2.60;99.90
47520;DHT22;33252;48.122;11.538;2024-01-27T03:21:58;2.60;99.90
47520;DHT22;33252;48.122;11.538;2024-01-27T03:24:24;2.50;99.90
47520;DHT22;33252;48.122;11.538;2024-01-27T03:26:49;2.40;99.90
47520;DHT22;33252;48.122;11.538;2024-01-27T03:29:15;2.50;99.90
47520;DHT22;33252;48.122;11.538;2024-01-27T03:31:41;2.50;99.90
47520;DHT22;33252;48.122;11.538;2024-01-27T03:34:06;2.50;99.90
47520;DHT22;33252;48.122;11.538;2024-01-27T03:36:32;2.50;99.90
47520;DHT22;33252;48.122;11.538;2024-01-27T03:38:58;2.40;99.90
47520;DHT22;33252;48.122;11.538;2024-01-27T03:41:24;2.50;99.90
47520;DHT22;33252;48.122;11.538;2024-01-27T03:43:50;2.40;99.90
47520;DHT22;33252;48.122;11.538;2024-01-27T03:46:15;2.40;99.90
47520;DHT22;33252;48.122;11.538;2024-01-27T03:48:41;2.50;99.90
47520;DHT22;33252;48.122;11.538;2024-01-27T03:51:07;2.50;99.90
47520;DHT22;33252;48.122;11.538;2024-01-27T03:53:32;2.40;99.90
47520;DHT22;33252;48.122;11.538;2024-01-27T03:55:58;2.40;99.90
47520;DHT22;33252;48.122;11.538;2024-01-27T03:58:25;2.50;99.90
47520;DHT22;33252;48.122;11.538;2024-01-27T04:00:51;2.60;99.90
47520;DHT22;33252;48.122;11.538;2024-01-27T04:03:17;2.50;99.90
47520;DHT22;33252;48.122;11.538;2024-01-27T04:05:43;2.50;99.90
47520;DHT22;33252;48.122;11.538;2024-01-27T04:08:08;2.50;99.90
47520;DHT22;33252;48.122;11.538;2024-01-27T04:10:34;2.50;99.90
47520;DHT22;33252;48.122;11.538;2024-01-27T04:12:59;2.60;99.90
47520;DHT22;33252;48.122;11.538;2024-01-27T04:15:25;2.50;99.90
47520;DHT22;33252;48.122;11.538;2024-01-27T04:17:50;2.60;99.90
47520;DHT22;33252;48.122;11.538;2024-01-27T04:20:16;2.60;99.90
47520;DHT22;33252;48.122;11.538;2024-01-27T04:22:41;2.50;99.90
47520;DHT22;33252;48.122;11.538;2024-01-27T04:25:07;2.60;99.90
47520;DHT22;33252;48.122;11.538;2024-01-27T04:27:37;2.50;99.90
47520;DHT22;33252;48.122;11.538;2024-01-27T04:30:04;2.40;99.90
47520;DHT22;33252;48.122;11.538;2024-01-27T04:32:30;2.40;99.90
47520;DHT22;33252;48.122;11.538;2024-01-27T04:34:56;2.50;99.90
47520;DHT22;33252;48.122;11.538;2024-01-27T04:37:21;2.40;99.90
47520;DHT22;33252;48.122;11.538;2024-01-27T04:39:46;2.50;99.90
47520;DHT22;33252;48.122;11.538;2024-01-27T04:42:12;2.30;99.90
47520;DHT22;33252;48.122;11.538;2024-01-27T04:44:40;2.30;99.90
47520;DHT22;33252;48.122;11.538;2024-01-27T04:47:06;2.40;99.90
47520;DHT22;33252;48.122;11.538;2024-01-27T04:49:32;2.40;99.90
47520;DHT22;33252;48.122;11.538;2024-01-27T04:51:58;2.30;99.90
47520;DHT22;33252;48.122;11.538;2024-01-27T04:54:23;2.40;99.90
47520;DHT22;33252;48.122;11.538;2024-01-27T04:56:50;2.20;99.90
47520;DHT22;33252;48.122;11.538;2024-01-27T04:59:16;2.30;99.90
47520;DHT22;33252;48.122;11.538;2024-01-27T05:01:44;2.40;99.90
47520;DHT22;33252;48.122;11.538;2024-01-27T05:04:11;2.30;99.90
47520;DHT22;33252;48.122;11.538;2024-01-27T05:06:36;2.20;99.90
47520;DHT22;33252;48.122;11.538;2024-01-27T05:09:04;2.20;99.90
47520;DHT22;33252;48.122;11.538;2024-01-27T05:11:32;2.20;99.90
47520;DHT22;33252;48.122;11.538;2024-01-27T05:14:00;2.10;99.90
47520;DHT22;33252;48.122;11.538;2024-01-27T05:16:27;2.10;99.90
47520;DHT22;33252;48.122;11.538;2024-01-27T05:18:53;2.10;99.90
47520;DHT22;33252;48.122;11.538;2024-01-27T05:21:18;1.90;99.90
47520;DHT22;33252;48.122;11.538;2024-01-27T05:23:44;2.00;99.90
47520;DHT22;33252;48.122;11.538;2024-01-27T05:26:09;1.90;99.90
47520;DHT22;33252;48.122;11.538;2024-01-27T05:28:39;2.10;99.90
47520;DHT22;33252;48.122;11.538;2024-01-27T05:31:08;2.00;99.90
47520;DHT22;33252;48.122;11.538;2024-01-27T05:33:34;1.90;99.90
47520;DHT22;33252;48.122;11.538;2024-01-27T05:36:00;1.80;99.90
47520;DHT22;33252;48.122;11.538;2024-01-27T05:38:26;1.90;99.90
47520;DHT22;33252;48.122;11.538;2024-01-27T05:40:51;1.90;99.90
47520;DHT22;33252;48.122;11.538;2024-01-27T05:43:17;1.90;99.90
47520;DHT22;33252;48.122;11.538;2024-01-27T05:45:43;2.00;99.90
47520;DHT22;33252;48.122;11.538;2024-01-27T05:48:10;1.90;99.90
47520;DHT22;33252;48.122;11.538;2024-01-27T05:50:36;1.90;99.90
47520;DHT22;33252;48.122;11.538;2024-01-27T05:53:01;2.00;99.90
47520;DHT22;33252;48.122;11.538;2024-01-27T05:55:27;2.00;99.90
47520;DHT22;33252;48.122;11.538;2024-01-27T05:57:52;2.00;99.90
47520;DHT22;33252;48.122;11.538;2024-01-27T06:00:18;1.90;99.90
47520;DHT22;33252;48.122;11.538;2024-01-27T06:02:43;1.90;99.90
47520;DHT22;33252;48.122;11.538;2024-01-27T06:05:09;1.90;99.90
47520;DHT22;33252;48.122;11.538;2024-01-27T06:07:37;1.80;99.90
47520;DHT22;33252;48.122;11.538;2024-01-27T06:10:02;1.70;99.90
47520;DHT22;33252;48.122;11.538;2024-01-27T06:12:28;1.80;99.90
47520;DHT22;33252;48.122;11.538;2024-01-27T06:14:53;1.80;99.90
47520;DHT22;33252;48.122;11.538;2024-01-27T06:17:19;1.80;99.90
47520;DHT22;33252;48.122;11.538;2024-01-27T06:19:44;1.80;99.90
47520;DHT22;33252;48.122;11.538;2024-01-27T06:22:10;1.90;99.90
47520;DHT22;33252;48.122;11.538;2024-01-27T06:24:42;1.90;99.90
47520;DHT22;33252;48.122;11.538;2024-01-27T06:27:09;1.90;99.90
47520;DHT22;33252;48.122;11.538;2024-01-27T06:29:34;1.70;99.90
47520;DHT22;33252;48.122;11.538;2024-01-27T06:32:00;1.70;99.90
47520;DHT22;33252;48.122;11.538;2024-01-27T06:34:25;1.70;99.90
47520;DHT22;33252;48.122;11.538;2024-01-27T06:36:51;1.60;99.90
47520;DHT22;33252;48.122;11.538;2024-01-27T06:39:16;1.70;99.90
47520;DHT22;33252;48.122;11.538;2024-01-27T06:41:42;1.80;99.90
47520;DHT22;33252;48.122;11.538;2024-01-27T06:44:07;1.80;99.90
47520;DHT22;33252;48.122;11.538;2024-01-27T06:46:33;1.80;99.90
47520;DHT22;33252;48.122;11.538;2024-01-27T06:48:58;1.70;99.90
47520;DHT22;33252;48.122;11.538;2024-01-27T06:51:24;1.80;99.90
47520;DHT22;33252;48.122;11.538;2024-01-27T06:53:49;1.80;99.90
47520;DHT22;33252;48.122;11.538;2024-01-27T06:56:15;1.80;99.90
47520;DHT22;33252;48.122;11.538;2024-01-27T06:58:41;1.70;99.90
47520;DHT22;33252;48.122;11.538;2024-01-27T07:01:07;1.60;99.90
47520;DHT22;33252;48.122;11.538;2024-01-27T07:03:32;1.80;99.90
47520;DHT22;33252;48.122;11.538;2024-01-27T07:05:58;1.80;99.90
47520;DHT22;33252;48.122;11.538;2024-01-27T07:08:26;1.70;99.90
47520;DHT22;33252;48.122;11.538;2024-01-27T07:10:52;1.80;99.90
47520;DHT22;33252;48.122;11.538;2024-01-27T07:13:17;1.80;99.90
47520;DHT22;33252;48.122;11.538;2024-01-27T07:15:43;1.70;99.90
47520;DHT22;33252;48.122;11.538;2024-01-27T07:18:09;1.80;99.90
47520;DHT22;33252;48.122;11.538;2024-01-27T07:20:36;1.90;99.90
47520;DHT22;33252;48.122;11.538;2024-01-27T07:23:01;1.90;99.90
47520;DHT22;33252;48.122;11.538;2024-01-27T07:25:27;1.70;99.90
47520;DHT22;33252;48.122;11.538;2024-01-27T07:27:54;1.80;99.90
47520;DHT22;33252;48.122;11.538;2024-01-27T07:30:20;1.90;99.90
47520;DHT22;33252;48.122;11.538;2024-01-27T07:32:46;1.70;99.90
47520;DHT22;33252;48.122;11.538;2024-01-27T07:35:11;1.80;99.90
47520;DHT22;33252;48.122;11.538;2024-01-27T07:37:37;1.70;99.90
47520;DHT22;33252;48.122;11.538;2024-01-27T07:40:03;1.70;99.90
47520;DHT22;33252;48.122;11.538;2024-01-27T07:42:28;1.80;99.90
47520;DHT22;33252;48.122;11.538;2024-01-27T07:44:54;1.80;99.90
47520;DHT22;33252;48.122;11.538;2024-01-27T07:47:19;1.90;99.90
47520;DHT22;33252;48.122;11.538;2024-01-27T07:49:45;1.80;99.90
47520;DHT22;33252;48.122;11.538;2024-01-27T07:52:10;1.90;99.90
47520;DHT22;33252;48.122;11.538;2024-01-27T07:54:36;2.00;99.90
47520;DHT22;33252;48.122;11.538;2024-01-27T07:57:05;2.00;99.90
47520;DHT22;33252;48.122;11.538;2024-01-27T07:59:30;2.10;99.90
47520;DHT22;33252;48.122;11.538;2024-01-27T08:01:56;2.10;99.90
47520;DHT22;33252;48.122;11.538;2024-01-27T08:04:22;2.20;99.90
47520;DHT22;33252;48.122;11.538;2024-01-27T08:06:49;2.30;99.90
47520;DHT22;33252;48.122;11.538;2024-01-27T08:09:15;2.40;99.90
47520;DHT22;33252;48.122;11.538;2024-01-27T08:11:41;2.40;99.90
47520;DHT22;33252;48.122;11.538;2024-01-27T08:14:07;2.40;99.90
47520;DHT22;33252;48.122;11.538;2024-01-27T08:16:32;2.50;99.90
47520;DHT22;33252;48.122;11.538;2024-01-27T08:18:58;2.50;99.90
47520;DHT22;33252;48.122;11.538;2024-01-27T08:21:23;2.50;99.90
47520;DHT22;33252;48.122;11.538;2024-01-27T08:23:49;2.60;99.90
47520;DHT22;33252;48.122;11.538;2024-01-27T08:26:14;2.60;99.90
47520;DHT22;33252;48.122;11.538;2024-01-27T08:28:40;2.60;99.90
47520;DHT22;33252;48.122;11.538;2024-01-27T08:31:05;2.60;99.90
47520;DHT22;33252;48.122;11.538;2024-01-27T08:33:31;2.50;99.90
47520;DHT22;33252;48.122;11.538;2024-01-27T08:35:57;2.70;99.90
47520;DHT22;33252;48.122;11.538;2024-01-27T08:38:22;2.70;99.90
47520;DHT22;33252;48.122;11.538;2024-01-27T08:40:48;2.80;99.90
47520;DHT22;33252;48.122;11.538;2024-01-27T08:43:14;2.80;99.90
47520;DHT22;33252;48.122;11.538;2024-01-27T08:45:40;2.90;99.90
47520;DHT22;33252;48.122;11.538;2024-01-27T08:48:06;2.80;99.90
47520;DHT22;33252;48.122;11.538;2024-01-27T08:50:32;2.80;99.90
47520;DHT22;33252;48.122;11.538;2024-01-27T08:52:57;2.80;99.90
47520;DHT22;33252;48.122;11.538;2024-01-27T08:55:23;2.80;99.90
47520;DHT22;33252;48.122;11.538;2024-01-27T08:57:50;2.90;99.90
47520;DHT22;33252;48.122;11.538;2024-01-27T09:00:16;3.00;99.90
47520;DHT22;33252;48.122;11.538;2024-01-27T09:02:42;3.10;99.90
47520;DHT22;33252;48.122;11.538;2024-01-27T09:05:08;3.20;99.90
47520;DHT22;33252;48.122;11.538;2024-01-27T09:07:34;3.20;99.90
47520;DHT22;33252;48.122;11.538;2024-01-27T09:09:59;3.30;99.90
47520;DHT22;33252;48.122;11.538;2024-01-27T09:12:25;3.40;99.90
47520;DHT22;33252;48.122;11.538;2024-01-27T09:14:50;3.60;99.90
47520;DHT22;33252;48.122;11.538;2024-01-27T09:17:16;3.50;99.90
47520;DHT22;33252;48.122;11.538;2024-01-27T09:19:42;3.60;99.90
47520;DHT22;33252;48.122;11.538;2024-01-27T09:22:08;3.60;99.90
47520;DHT22;33252;48.122;11.538;2024-01-27T09:24:33;3.50;99.90
47520;DHT22;33252;48.122;11.538;2024-01-27T09:26:59;3.50;99.90
47520;DHT22;33252;48.122;11.538;2024-01-27T09:29:24;3.50;99.90
47520;DHT22;33252;48.122;11.538;2024-01-27T09:31:50;3.60;99.90
47520;DHT22;33252;48.122;11.538;2024-01-27T09:34:15;3.60;99.90
47520;DHT22;33252;48.122;11.538;2024-01-27T09:36:41;3.70;99.90
47520;DHT22;33252;48.122;11.538;2024-01-27T09:39:06;3.60;99.90
47520;DHT22;33252;48.122;11.538;2024-01-27T09:41:32;3.70;99.90
47520;DHT22;33252;48.122;11.538;2024-01-27T09:44:01;3.80;99.90
47520;DHT22;33252;48.122;11.538;2024-01-27T09:46:29;3.90;99.90
47520;DHT22;33252;48.122;11.538;2024-01-27T09:48:54;3.70;99.90
47520;DHT22;33252;48.122;11.538;2024-01-27T09:51:20;3.80;99.90
47520;DHT22;33252;48.122;11.538;2024-01-27T09:53:46;3.90;99.90
47520;DHT22;33252;48.122;11.538;2024-01-27T09:56:12;3.80;99.90
47520;DHT22;33252;48.122;11.538;2024-01-27T09:58:44;3.70;99.90
47520;DHT22;33252;48.122;11.538;2024-01-27T10:01:10;3.70;99.90
47520;DHT22;33252;48.122;11.538;2024-01-27T10:03:39;3.90;99.90
47520;DHT22;33252;48.122;11.538;2024-01-27T10:06:08;4.00;99.90
47520;DHT22;33252;48.122;11.538;2024-01-27T10:08:34;4.20;99.90
47520;DHT22;33252;48.122;11.538;2024-01-27T10:11:06;4.30;99.90
47520;DHT22;33252;48.122;11.538;2024-01-27T10:13:33;4.40;99.90
47520;DHT22;33252;48.122;11.538;2024-01-27T10:16:02;4.50;99.90
47520;DHT22;33252;48.122;11.538;2024-01-27T10:18:29;4.70;99.90
47520;DHT22;33252;48.122;11.538;2024-01-27T10:20:55;5.00;99.90
47520;DHT22;33252;48.122;11.538;2024-01-27T10:23:20;5.10;99.90
47520;DHT22;33252;48.122;11.538;2024-01-27T10:25:46;4.70;99.90
47520;DHT22;33252;48.122;11.538;2024-01-27T10:28:11;4.90;99.90
47520;DHT22;33252;48.122;11.538;2024-01-27T10:30:37;4.50;99.90
47520;DHT22;33252;48.122;11.538;2024-01-27T10:33:03;4.30;99.90
47520;DHT22;33252;48.122;11.538;2024-01-27T10:35:29;4.10;99.90
47520;DHT22;33252;48.122;11.538;2024-01-27T10:37:55;4.10;99.90
47520;DHT22;33252;48.122;11.538;2024-01-27T10:40:22;4.30;99.90
47520;DHT22;33252;48.122;11.538;2024-01-27T10:43:03;4.50;99.90
47520;DHT22;33252;48.122;11.538;2024-01-27T10:45:41;4.70;99.90
47520;DHT22;33252;48.122;11.538;2024-01-27T10:48:08;4.70;99.90
47520;DHT22;33252;48.122;11.538;2024-01-27T10:50:38;4.60;99.90
47520;DHT22;33252;48.122;11.538;2024-01-27T10:53:05;4.80;99.90
47520;DHT22;33252;48.122;11.538;2024-01-27T10:55:34;4.70;99.90
47520;DHT22;33252;48.122;11.538;2024-01-27T10:58:03;4.50;99.90
47520;DHT22;33252;48.122;11.538;2024-01-27T11:00:29;4.60;99.90
47520;DHT22;33252;48.122;11.538;2024-01-27T11:02:59;4.60;99.90
47520;DHT22;33252;48.122;11.538;2024-01-27T11:05:27;4.50;99.90
47520;DHT22;33252;48.122;11.538;2024-01-27T11:07:55;4.60;99.90
47520;DHT22;33252;48.122;11.538;2024-01-27T11:10:22;4.70;99.90
47520;DHT22;33252;48.122;11.538;2024-01-27T11:12:48;4.70;99.90
47520;DHT22;33252;48.122;11.538;2024-01-27T11:15:14;4.70;99.90
47520;DHT22;33252;48.122;11.538;2024-01-27T11:17:40;4.70;99.90
47520;DHT22;33252;48.122;11.538;2024-01-27T11:20:10;4.80;99.90
47520;DHT22;33252;48.122;11.538;2024-01-27T11:22:37;4.90;99.90
47520;DHT22;33252;48.122;11.538;2024-01-27T11:25:06;5.00;99.90
47520;DHT22;33252;48.122;11.538;2024-01-27T11:27:32;5.20;99.90
47520;DHT22;33252;48.122;11.538;2024-01-27T11:29:58;5.10;99.90
47520;DHT22;33252;48.122;11.538;2024-01-27T11:32:23;5.10;98.50
47520;DHT22;33252;48.122;11.538;2024-01-27T11:34:50;4.90;99.40
47520;DHT22;33252;48.122;11.538;2024-01-27T11:37:16;5.00;99.90
47520;DHT22;33252;48.122;11.538;2024-01-27T11:39:42;5.10;99.70
47520;DHT22;33252;48.122;11.538;2024-01-27T11:42:13;5.00;99.90
47520;DHT22;33252;48.122;11.538;2024-01-27T11:44:40;5.00;99.90
47520;DHT22;33252;48.122;11.538;2024-01-27T11:47:14;5.00;99.90
47520;DHT22;33252;48.122;11.538;2024-01-27T11:49:42;5.00;99.90
47520;DHT22;33252;48.122;11.538;2024-01-27T11:52:07;5.10;99.90
47520;DHT22;33252;48.122;11.538;2024-01-27T11:54:33;5.30;99.10
47520;DHT22;33252;48.122;11.538;2024-01-27T11:56:58;5.40;99.90
47520;DHT22;33252;48.122;11.538;2024-01-27T11:59:24;5.20;97.50
47520;DHT22;33252;48.122;11.538;2024-01-27T12:01:49;5.20;98.10
47520;DHT22;33252;48.122;11.538;2024-01-27T12:04:16;5.20;99.00
47520;DHT22;33252;48.122;11.538;2024-01-27T12:06:43;5.20;98.80
47520;DHT22;33252;48.122;11.538;2024-01-27T12:09:09;5.30;99.10
47520;DHT22;33252;48.122;11.538;2024-01-27T12:11:38;5.30;99.00
47520;DHT22;33252;48.122;11.538;2024-01-27T12:14:07;5.20;98.20
47520;DHT22;33252;48.122;11.538;2024-01-27T12:16:33;5.30;99.30
47520;DHT22;33252;48.122;11.538;2024-01-27T12:18:59;5.40;98.90
47520;DHT22;33252;48.122;11.538;2024-01-27T12:21:25;5.50;98.80
47520;DHT22;33252;48.122;11.538;2024-01-27T12:23:54;5.50;98.10
47520;DHT22;33252;48.122;11.538;2024-01-27T12:26:29;5.40;98.30
47520;DHT22;33252;48.122;11.538;2024-01-27T12:28:56;5.40;98.50
47520;DHT22;33252;48.122;11.538;2024-01-27T12:31:23;5.30;98.10
47520;DHT22;33252;48.122;11.538;2024-01-27T12:33:54;5.40;98.20
47520;DHT22;33252;48.122;11.538;2024-01-27T12:36:21;5.40;97.70
47520;DHT22;33252;48.122;11.538;2024-01-27T12:38:56;5.40;97.70
47520;DHT22;33252;48.122;11.538;2024-01-27T12:41:22;5.60;98.90
47520;DHT22;33252;48.122;11.538;2024-01-27T12:43:47;5.60;98.00
47520;DHT22;33252;48.122;11.538;2024-01-27T12:46:13;5.70;97.90
47520;DHT22;33252;48.122;11.538;2024-01-27T12:48:40;5.70;97.00
47520;DHT22;33252;48.122;11.538;2024-01-27T12:51:05;5.60;97.10
47520;DHT22;33252;48.122;11.538;2024-01-27T12:53:31;5.70;97.80
47520;DHT22;33252;48.122;11.538;2024-01-27T12:55:56;5.60;96.70
47520;DHT22;33252;48.122;11.538;2024-01-27T12:58:22;5.60;95.70
47520;DHT22;33252;48.122;11.538;2024-01-27T13:00:48;5.70;94.90
47520;DHT22;33252;48.122;11.538;2024-01-27T13:03:14;5.80;94.60
47520;DHT22;33252;48.122;11.538;2024-01-27T13:05:39;5.80;94.00
47520;DHT22;33252;48.122;11.538;2024-01-27T13:08:05;5.80;95.70
47520;DHT22;33252;48.122;11.538;2024-01-27T13:10:31;5.90;95.20
47520;DHT22;33252;48.122;11.538;2024-01-27T13:12:56;5.80;94.60
47520;DHT22;33252;48.122;11.538;2024-01-27T13:15:24;6.00;95.10
47520;DHT22;33252;48.122;11.538;2024-01-27T13:17:50;6.10;95.30
47520;DHT22;33252;48.122;11.538;2024-01-27T13:20:16;6.20;95.00
47520;DHT22;33252;48.122;11.538;2024-01-27T13:22:43;6.30;94.90
47520;DHT22;33252;48.122;11.538;2024-01-27T13:25:08;6.40;94.80
47520;DHT22;33252;48.122;11.538;2024-01-27T13:27:34;6.50;94.60
47520;DHT22;33252;48.122;11.538;2024-01-27T13:30:00;6.50;94.30
47520;DHT22;33252;48.122;11.538;2024-01-27T13:32:28;6.70;94.60
47520;DHT22;33252;48.122;11.538;2024-01-27T13:34:53;6.70;94.60
47520;DHT22;33252;48.122;11.538;2024-01-27T13:37:20;6.70;93.20
47520;DHT22;33252;48.122;11.538;2024-01-27T13:39:46;6.70;93.10
47520;DHT22;33252;48.122;11.538;2024-01-27T13:42:11;6.70;93.20
47520;DHT22;33252;48.122;11.538;2024-01-27T13:44:37;6.80;93.50
47520;DHT22;33252;48.122;11.538;2024-01-27T13:47:03;6.80;93.30
47520;DHT22;33252;48.122;11.538;2024-01-27T13:49:33;6.90;93.60
47520;DHT22;33252;48.122;11.538;2024-01-27T13:51:58;7.10;93.40
47520;DHT22;33252;48.122;11.538;2024-01-27T13:54:24;7.30;92.80
47520;DHT22;33252;48.122;11.538;2024-01-27T13:56:49;7.30;92.40
47520;DHT22;33252;48.122;11.538;2024-01-27T13:59:15;7.40;93.00
47520;DHT22;33252;48.122;11.538;2024-01-27T14:01:40;7.80;93.10
47520;DHT22;33252;48.122;11.538;2024-01-27T14:04:06;7.90;92.40
47520;DHT22;33252;48.122;11.538;2024-01-27T14:06:33;7.90;91.60
47520;DHT22;33252;48.122;11.538;2024-01-27T14:08:59;7.90;91.90
47520;DHT22;33252;48.122;11.538;2024-01-27T14:11:26;8.00;91.50
47520;DHT22;33252;48.122;11.538;2024-01-27T14:13:52;7.80;90.80
47520;DHT22;33252;48.122;11.538;2024-01-27T14:16:17;7.50;90.00
47520;DHT22;33252;48.122;11.538;2024-01-27T14:18:43;7.70;91.20
47520;DHT22;33252;48.122;11.538;2024-01-27T14:21:09;7.70;91.90
47520;DHT22;33252;48.122;11.538;2024-01-27T14:23:34;7.80;91.40
47520;DHT22;33252;48.122;11.538;2024-01-27T14:26:00;8.00;90.60
47520;DHT22;33252;48.122;11.538;2024-01-27T14:28:25;8.00;90.70
47520;DHT22;33252;48.122;11.538;2024-01-27T14:30:51;8.10;91.10
47520;DHT22;33252;48.122;11.538;2024-01-27T14:33:16;8.00;90.80
47520;DHT22;33252;48.122;11.538;2024-01-27T14:35:46;7.90;91.30
47520;DHT22;33252;48.122;11.538;2024-01-27T14:38:12;7.80;90.60
47520;DHT22;33252;48.122;11.538;2024-01-27T14:40:38;7.90;90.40
47520;DHT22;33252;48.122;11.538;2024-01-27T14:43:04;7.90;90.70
47520;DHT22;33252;48.122;11.538;2024-01-27T14:45:34;7.70;90.90
47520;DHT22;33252;48.122;11.538;2024-01-27T14:48:01;7.70;90.50
47520;DHT22;33252;48.122;11.538;2024-01-27T14:50:27;7.60;90.50
47520;DHT22;33252;48.122;11.538;2024-01-27T14:52:53;7.50;90.40
47520;DHT22;33252;48.122;11.538;2024-01-27T14:55:18;7.40;90.60
47520;DHT22;33252;48.122;11.538;2024-01-27T14:57:44;7.40;90.80
47520;DHT22;33252;48.122;11.538;2024-01-27T15:00:10;7.30;90.30
47520;DHT22;33252;48.122;11.538;2024-01-27T15:02:35;7.00;90.90
47520;DHT22;33252;48.122;11.538;2024-01-27T15:05:01;6.80;90.80
47520;DHT22;33252;48.122;11.538;2024-01-27T15:07:26;6.60;91.80
47520;DHT22;33252;48.122;11.538;2024-01-27T15:09:55;6.40;92.20
47520;DHT22;33252;48.122;11.538;2024-01-27T15:12:21;6.40;91.50
47520;DHT22;33252;48.122;11.538;2024-01-27T15:14:49;6.40;92.00
47520;DHT22;33252;48.122;11.538;2024-01-27T15:17:15;6.30;91.70
47520;DHT22;33252;48.122;11.538;2024-01-27T15:19:40;6.20;91.80
47520;DHT22;33252;48.122;11.538;2024-01-27T15:22:06;6.20;90.90